createdAt,value
2019-02-26T00:02:23.685Z,13.77
2019-02-26T00:04:54.069Z,14.50
2019-02-26T00:07:23.525Z,15.37
2019-02-26T00:09:53.574Z,17.93
2019-02-26T00:13:12.773Z,18.33
2019-02-26T00:15:40.499Z,12.90
2019-02-26T00:18:11.572Z,17.00
2019-02-26T00:20:39.678Z,15.10
2019-02-26T00:23:06.744Z,16.03
2019-02-26T00:25:34.673Z,15.20
2019-02-26T00:28:01.713Z,15.73
2019-02-26T00:30:28.800Z,16.80
2019-02-26T00:32:57.719Z,17.97
2019-02-26T00:35:25.328Z,16.97
2019-02-26T00:37:55.697Z,16.30
2019-02-26T00:40:22.760Z,19.70
2019-02-26T00:42:52.228Z,17.70
2019-02-26T00:45:22.388Z,14.20
2019-02-26T00:47:47.757Z,13.70
2019-02-26T00:50:16.610Z,15.57
2019-02-26T00:52:43.815Z,20.60
2019-02-26T00:55:11.066Z,20.40
2019-02-26T00:57:38.932Z,19.70
2019-02-26T01:00:09.942Z,22.03
2019-02-26T01:02:38.086Z,21.30
2019-02-26T01:05:06.393Z,19.90
2019-02-26T01:07:34.627Z,18.67
2019-02-26T01:10:01.726Z,19.90
2019-02-26T01:12:28.780Z,17.00
2019-02-26T01:14:57.533Z,18.63
2019-02-26T01:17:24.616Z,20.03
2019-02-26T01:19:56.564Z,16.20
2019-02-26T01:22:24.550Z,17.30
2019-02-26T01:24:52.561Z,15.47
2019-02-26T01:27:20.564Z,13.90
2019-02-26T01:29:51.221Z,15.07
2019-02-26T01:32:18.088Z,16.40
2019-02-26T01:34:50.261Z,16.53
2019-02-26T01:37:17.388Z,17.57
2019-02-26T01:39:44.854Z,18.20
2019-02-26T01:42:15.844Z,15.97
2019-02-26T01:44:44.370Z,16.77
2019-02-26T01:47:11.322Z,17.17
2019-02-26T01:49:39.767Z,15.73
2019-02-26T01:52:08.319Z,15.80
2019-02-26T01:54:37.446Z,16.97
2019-02-26T01:57:08.611Z,17.73
2019-02-26T01:59:34.672Z,17.90
2019-02-26T02:02:01.784Z,16.50
2019-02-26T02:04:29.111Z,16.50
2019-02-26T02:06:57.089Z,13.83
2019-02-26T02:09:25.189Z,15.60
2019-02-26T02:11:52.297Z,17.60
2019-02-26T02:14:19.369Z,18.27
2019-02-26T02:16:46.394Z,17.20
2019-02-26T02:19:18.008Z,17.10
2019-02-26T02:21:42.418Z,17.53
2019-02-26T02:24:12.691Z,18.70
2019-02-26T02:26:41.031Z,18.57
2019-02-26T02:29:08.219Z,15.20
2019-02-26T02:31:37.695Z,16.80
2019-02-26T02:34:04.264Z,17.50
2019-02-26T02:36:31.444Z,19.47
2019-02-26T02:38:58.485Z,19.80
2019-02-26T02:41:25.527Z,17.93
2019-02-26T02:43:52.619Z,16.43
2019-02-26T02:46:19.667Z,16.43
2019-02-26T02:48:46.724Z,16.40
2019-02-26T02:51:14.042Z,15.47
2019-02-26T02:53:41.360Z,16.37
2019-02-26T02:56:10.555Z,17.70
2019-02-26T02:58:38.539Z,18.10
2019-02-26T03:01:06.413Z,16.13
2019-02-26T03:03:33.483Z,17.43
2019-02-26T03:06:02.005Z,18.67
2019-02-26T03:08:29.527Z,20.20
2019-02-26T03:10:56.569Z,18.50
2019-02-26T03:13:25.477Z,17.37
2019-02-26T03:15:53.461Z,18.57
2019-02-26T03:18:21.562Z,18.93
2019-02-26T03:20:51.225Z,15.77
2019-02-26T03:23:20.025Z,16.87
2019-02-26T03:25:47.868Z,18.90
2019-02-26T03:28:16.228Z,20.40
2019-02-26T03:30:44.527Z,17.80
2019-02-26T03:33:11.854Z,15.67
2019-02-26T03:35:57.688Z,14.03
2019-02-26T03:38:26.852Z,14.57
2019-02-26T03:40:55.488Z,16.90
2019-02-26T03:43:22.774Z,16.07
2019-02-26T03:45:49.827Z,16.40
2019-02-26T03:48:20.366Z,17.13
2019-02-26T03:50:45.868Z,18.73
2019-02-26T03:53:12.918Z,18.20
2019-02-26T03:55:42.033Z,20.47
2019-02-26T03:58:08.968Z,20.60
2019-02-26T04:00:38.629Z,19.57
2019-02-26T04:03:05.942Z,22.70
2019-02-26T04:05:33.957Z,21.23
2019-02-26T04:08:02.047Z,21.80
2019-02-26T04:10:29.933Z,19.87
2019-02-26T04:12:58.209Z,20.73
2019-02-26T04:15:27.865Z,19.00
2019-02-26T04:17:54.233Z,19.37
2019-02-26T04:20:21.289Z,19.03
2019-02-26T04:22:50.121Z,17.07
2019-02-26T04:25:52.108Z,16.97
2019-02-26T04:28:57.335Z,16.27
2019-02-26T04:32:09.006Z,16.77
2019-02-26T04:35:02.460Z,18.33
2019-02-26T04:38:11.201Z,16.63
2019-02-26T04:41:00.505Z,18.23
2019-02-26T04:44:12.272Z,18.47
2019-02-26T04:47:00.186Z,19.43
2019-02-26T04:49:28.170Z,18.40
2019-02-26T04:51:56.169Z,17.43
2019-02-26T04:54:26.368Z,18.00
2019-02-26T04:56:52.144Z,18.00
2019-02-26T04:59:19.256Z,15.40
2019-02-26T05:01:47.272Z,15.83
2019-02-26T05:04:15.298Z,14.20
2019-02-26T05:06:42.407Z,15.73
2019-02-26T05:09:10.626Z,16.03
2019-02-26T05:11:40.546Z,17.23
2019-02-26T05:14:09.035Z,18.07
2019-02-26T05:16:37.809Z,17.50
2019-02-26T05:19:04.711Z,18.10
2019-02-26T05:21:34.899Z,19.73
2019-02-26T05:24:02.961Z,19.93
2019-02-26T05:26:30.326Z,18.47
2019-02-26T05:28:57.605Z,20.53
2019-02-26T05:31:24.714Z,21.73
2019-02-26T05:33:54.217Z,18.93
2019-02-26T05:36:20.791Z,18.23
2019-02-26T05:38:49.263Z,17.37
2019-02-26T05:41:16.795Z,17.13
2019-02-26T05:43:49.318Z,19.80
2019-02-26T05:46:12.827Z,18.37
2019-02-26T05:48:43.068Z,19.57
2019-02-26T05:51:11.451Z,20.53
2019-02-26T05:53:38.008Z,23.90
2019-02-26T05:56:05.110Z,21.40
2019-02-26T05:58:33.648Z,19.60
2019-02-26T06:01:01.184Z,19.77
2019-02-26T06:03:28.219Z,19.90
2019-02-26T06:05:57.646Z,21.63
2019-02-26T06:08:26.695Z,21.23
2019-02-26T06:10:53.332Z,21.53
2019-02-26T06:13:20.460Z,20.17
2019-02-26T06:15:47.524Z,19.90
2019-02-26T06:18:14.586Z,16.00
2019-02-26T06:20:41.701Z,17.43
2019-02-26T06:23:08.805Z,16.70
2019-02-26T06:25:35.862Z,19.03
2019-02-26T06:28:06.847Z,16.63
2019-02-26T06:30:31.955Z,15.43
2019-02-26T06:33:02.015Z,16.73
2019-02-26T06:35:28.072Z,17.20
2019-02-26T06:37:55.137Z,17.63
2019-02-26T06:40:22.193Z,17.50
2019-02-26T06:42:49.348Z,17.40
2019-02-26T06:45:17.041Z,19.30
2019-02-26T06:47:45.602Z,17.90
2019-02-26T06:50:15.852Z,20.40
2019-02-26T06:52:44.707Z,21.27
2019-02-26T06:55:11.395Z,20.10
2019-02-26T06:57:38.833Z,20.33
2019-02-26T07:00:09.859Z,19.70
2019-02-26T07:02:37.059Z,20.20
2019-02-26T07:05:05.937Z,19.13
2019-02-26T07:07:32.992Z,20.73
2019-02-26T07:10:00.234Z,19.17
2019-02-26T07:12:27.309Z,18.20
2019-02-26T07:14:55.485Z,18.80
2019-02-26T07:17:23.458Z,18.90
2019-02-26T07:19:52.674Z,17.63
2019-02-26T07:22:19.572Z,18.43
2019-02-26T07:24:48.775Z,19.80
2019-02-26T07:27:15.648Z,21.60
2019-02-26T07:29:44.903Z,21.53
2019-02-26T07:32:12.328Z,21.63
2019-02-26T07:34:42.823Z,19.80
2019-02-26T07:37:11.582Z,21.37
2019-02-26T07:39:40.222Z,21.40
2019-02-26T07:42:09.183Z,18.73
2019-02-26T07:44:36.638Z,22.60
2019-02-26T07:47:06.140Z,20.47
2019-02-26T07:49:32.808Z,21.03
2019-02-26T07:52:02.646Z,20.13
2019-02-26T07:54:29.113Z,21.43
2019-02-26T07:56:57.456Z,22.30
2019-02-26T07:59:27.833Z,20.60
2019-02-26T08:01:54.151Z,19.53
2019-02-26T08:04:21.241Z,19.97
2019-02-26T08:06:48.360Z,17.90
2019-02-26T08:09:17.042Z,20.50
2019-02-26T08:11:46.914Z,18.87
2019-02-26T08:14:15.751Z,17.80
2019-02-26T08:16:42.738Z,15.90
2019-02-26T08:19:09.859Z,13.40
2019-02-26T08:21:36.977Z,13.80
2019-02-26T08:24:05.166Z,12.10
2019-02-26T08:26:32.544Z,10.53
2019-02-26T08:29:00.218Z,9.30
2019-02-26T08:31:28.642Z,10.10
2019-02-26T08:33:55.729Z,9.43
2019-02-26T08:36:22.781Z,9.07
2019-02-26T08:38:51.902Z,10.63
2019-02-26T08:41:18.835Z,9.50
2019-02-26T08:43:47.057Z,9.13
2019-02-26T08:46:16.637Z,10.47
2019-02-26T08:48:46.148Z,9.17
2019-02-26T08:51:16.037Z,9.37
2019-02-26T08:53:41.934Z,8.60
2019-02-26T08:56:09.053Z,8.80
2019-02-26T08:58:36.412Z,8.77
2019-02-26T09:01:03.760Z,8.87
2019-02-26T09:03:40.134Z,9.60
2019-02-26T09:06:10.929Z,8.47
2019-02-26T09:08:30.774Z,8.83
2019-02-26T09:10:57.891Z,8.40
2019-02-26T09:13:26.098Z,8.67
2019-02-26T09:15:55.142Z,8.33
2019-02-26T09:18:24.580Z,8.57
2019-02-26T09:20:51.241Z,8.27
2019-02-26T09:23:20.867Z,7.70
2019-02-26T09:25:51.451Z,8.27
2019-02-26T09:28:16.345Z,7.83
2019-02-26T09:30:43.464Z,8.47
2019-02-26T09:33:11.189Z,7.23
2019-02-26T09:35:38.367Z,8.23
2019-02-26T09:38:05.483Z,8.27
2019-02-26T09:40:34.208Z,8.27
2019-02-26T09:43:01.561Z,8.07
2019-02-26T09:45:29.790Z,8.17
2019-02-26T09:47:58.117Z,7.37
2019-02-26T09:50:25.533Z,7.37
2019-02-26T09:52:55.509Z,7.43
2019-02-26T09:55:27.377Z,7.80
2019-02-26T09:57:54.432Z,8.07
2019-02-26T10:00:23.627Z,8.47
2019-02-26T10:02:52.103Z,8.43
2019-02-26T10:05:19.448Z,7.67
2019-02-26T10:07:46.566Z,7.10
2019-02-26T10:10:15.410Z,6.47
2019-02-26T10:12:42.461Z,7.73
2019-02-26T10:15:10.353Z,8.17
2019-02-26T10:17:39.984Z,7.97
2019-02-26T10:20:09.547Z,7.87
2019-02-26T10:22:38.505Z,7.50
2019-02-26T10:25:06.707Z,7.83
2019-02-26T10:27:36.092Z,7.10
2019-02-26T10:30:07.129Z,7.53
2019-02-26T10:32:32.876Z,7.27
2019-02-26T10:35:00.029Z,6.70
2019-02-26T10:37:27.278Z,7.40
2019-02-26T10:39:54.903Z,7.00
2019-02-26T10:42:22.218Z,7.60
2019-02-26T10:44:49.283Z,7.10
2019-02-26T10:47:16.344Z,6.80
2019-02-26T10:49:46.450Z,7.03
2019-02-26T10:52:16.743Z,6.20
2019-02-26T10:54:44.723Z,6.87
2019-02-26T10:57:14.392Z,7.60
2019-02-26T10:59:42.243Z,8.40
2019-02-26T11:02:09.915Z,7.07
2019-02-26T11:04:41.020Z,7.43
2019-02-26T11:07:08.709Z,6.97
2019-02-26T11:09:35.118Z,6.53
2019-02-26T11:12:05.135Z,7.30
2019-02-26T11:14:33.562Z,7.40
2019-02-26T11:17:00.211Z,6.60
2019-02-26T11:19:32.908Z,5.73
2019-02-26T11:21:58.663Z,7.17
2019-02-26T11:24:26.451Z,5.43
2019-02-26T11:26:54.626Z,5.80
2019-02-26T11:29:23.524Z,5.87
2019-02-26T11:31:50.628Z,6.57
2019-02-26T11:34:17.684Z,5.77
2019-02-26T11:36:44.748Z,5.60
2019-02-26T11:39:12.155Z,5.97
2019-02-26T11:41:39.464Z,5.70
2019-02-26T11:44:09.954Z,6.23
2019-02-26T11:46:36.492Z,5.00
2019-02-26T11:49:03.872Z,5.50
2019-02-26T11:51:37.155Z,4.87
2019-02-26T11:54:04.639Z,5.30
2019-02-26T11:56:29.332Z,5.17
2019-02-26T11:58:56.518Z,5.73
2019-02-26T12:01:23.683Z,5.20
2019-02-26T12:03:50.765Z,6.27
2019-02-26T12:06:18.143Z,6.17
2019-02-26T12:08:47.244Z,6.13
2019-02-26T12:11:17.665Z,6.27
2019-02-26T12:13:45.198Z,5.37
2019-02-26T12:16:13.386Z,6.37
2019-02-26T12:18:41.691Z,4.67
2019-02-26T12:21:10.590Z,4.30
2019-02-26T12:23:39.697Z,5.60
2019-02-26T12:26:09.409Z,5.03
2019-02-26T12:28:38.357Z,5.60
2019-02-26T12:31:08.125Z,4.90
2019-02-26T12:33:34.952Z,4.87
2019-02-26T12:36:04.366Z,4.23
2019-02-26T12:38:31.030Z,4.00
2019-02-26T12:40:58.075Z,2.83
2019-02-26T12:43:25.332Z,3.77
2019-02-26T12:45:55.258Z,4.10
2019-02-26T12:48:22.768Z,4.20
2019-02-26T12:51:01.424Z,4.27
2019-02-26T12:53:28.306Z,3.80
2019-02-26T12:55:56.590Z,3.20
2019-02-26T12:58:27.552Z,4.20
2019-02-26T13:00:53.354Z,5.47
2019-02-26T13:03:22.687Z,2.73
2019-02-26T13:05:51.624Z,2.97
2019-02-26T13:08:19.725Z,5.33
2019-02-26T13:10:51.541Z,4.80
2019-02-26T13:13:39.385Z,4.20
2019-02-26T13:16:06.450Z,5.77
2019-02-26T13:18:33.629Z,6.90
2019-02-26T13:21:03.947Z,7.53
2019-02-26T13:23:29.866Z,7.43
2019-02-26T13:25:57.032Z,7.57
2019-02-26T13:28:29.375Z,4.40
2019-02-26T13:31:01.313Z,4.07
2019-02-26T13:33:32.792Z,5.10
2019-02-26T13:35:58.853Z,6.60
2019-02-26T13:38:24.775Z,5.93
2019-02-26T13:40:52.074Z,6.17
2019-02-26T13:43:19.175Z,7.67
2019-02-26T13:45:46.429Z,7.80
2019-02-26T13:48:13.879Z,8.57
2019-02-26T13:50:40.956Z,8.57
2019-02-26T13:53:07.989Z,9.37
2019-02-26T13:55:35.187Z,9.23
2019-02-26T13:58:11.411Z,9.23
2019-02-26T14:00:33.112Z,9.80
2019-02-26T14:03:13.689Z,10.00
2019-02-26T14:05:40.738Z,9.37
2019-02-26T14:08:08.072Z,9.73
2019-02-26T14:10:35.233Z,10.07
2019-02-26T14:13:03.826Z,10.10
2019-02-26T14:15:30.983Z,11.20
2019-02-26T14:17:58.719Z,10.60
2019-02-26T14:20:25.905Z,10.10
2019-02-26T14:22:52.958Z,10.10
2019-02-26T14:28:56.921Z,12.60
2019-02-26T14:31:24.087Z,12.43
2019-02-26T14:33:51.169Z,11.37
2019-02-26T14:36:18.270Z,10.43
2019-02-26T14:38:45.348Z,11.37
2019-02-26T14:41:15.507Z,11.57
2019-02-26T14:43:42.775Z,11.43
2019-02-26T14:46:09.855Z,12.37
2019-02-26T14:48:36.906Z,11.00
2019-02-26T14:51:04.038Z,11.13
2019-02-26T14:53:31.115Z,10.73
2019-02-26T14:55:58.184Z,11.43
2019-02-26T14:58:25.319Z,11.47
2019-02-26T15:00:57.771Z,11.07
2019-02-26T15:03:21.708Z,10.80
2019-02-26T15:05:48.839Z,10.60
2019-02-26T15:08:15.960Z,10.03
2019-02-26T15:10:43.066Z,10.43
2019-02-26T15:13:15.525Z,10.10
2019-02-26T15:15:42.590Z,10.17
2019-02-26T15:18:09.654Z,10.33
2019-02-26T15:20:36.905Z,9.63
2019-02-26T15:23:04.605Z,10.47
2019-02-26T15:25:31.657Z,10.53
2019-02-26T15:28:05.212Z,11.00
2019-02-26T15:30:27.787Z,11.03
2019-02-26T15:32:54.843Z,13.37
2019-02-26T15:35:22.357Z,12.30
2019-02-26T15:37:49.418Z,12.57
2019-02-26T15:40:16.592Z,12.83
2019-02-26T15:42:43.792Z,12.97
2019-02-26T15:45:13.506Z,14.20
2019-02-26T15:47:40.571Z,13.67
2019-02-26T15:50:09.638Z,14.13
2019-02-26T15:53:14.573Z,15.00
2019-02-26T15:55:42.008Z,14.30
2019-02-26T15:58:09.236Z,15.87
2019-02-26T16:00:38.009Z,14.87
2019-02-26T16:03:05.403Z,15.60
2019-02-26T16:05:32.511Z,14.43
2019-02-26T16:07:59.779Z,15.80
2019-02-26T16:10:33.101Z,15.50
2019-02-26T16:13:06.256Z,15.57
2019-02-26T16:15:34.046Z,15.80
2019-02-26T16:18:01.140Z,16.93
2019-02-26T16:20:28.615Z,16.67
2019-02-26T16:22:55.685Z,16.27
2019-02-26T16:25:22.971Z,16.47
2019-02-26T16:27:51.659Z,15.70
2019-02-26T16:30:19.925Z,16.07
2019-02-26T16:32:48.868Z,17.23
2019-02-26T16:35:16.470Z,17.30
2019-02-26T16:37:43.517Z,18.93
2019-02-26T16:40:10.741Z,18.60
2019-02-26T16:42:37.881Z,19.57
2019-02-26T16:45:07.114Z,18.63
2019-02-26T16:47:35.473Z,17.87
2019-02-26T16:50:13.026Z,18.90
2019-02-26T16:52:38.462Z,17.40
2019-02-26T16:55:06.544Z,19.07
2019-02-26T16:57:33.769Z,18.53
2019-02-26T17:00:00.941Z,22.20
2019-02-26T17:02:28.088Z,18.13
2019-02-26T17:05:14.983Z,17.57
2019-02-26T17:07:42.324Z,18.90
2019-02-26T17:10:13.625Z,16.97
2019-02-26T17:12:40.925Z,17.43
2019-02-26T17:15:12.924Z,16.90
2019-02-26T17:17:40.002Z,16.63
2019-02-26T17:20:07.794Z,16.63
2019-02-26T17:22:35.368Z,16.93
2019-02-26T17:25:03.500Z,17.70
2019-02-26T17:27:30.729Z,17.03
2019-02-26T17:29:57.822Z,17.47
2019-02-26T17:32:24.891Z,16.70
2019-02-26T17:34:53.733Z,18.03
2019-02-26T17:37:21.062Z,18.13
2019-02-26T17:39:48.143Z,16.53
2019-02-26T17:42:15.598Z,15.60
2019-02-26T17:44:56.439Z,16.57
2019-02-26T17:47:23.546Z,15.97
2019-02-26T17:49:50.814Z,17.67
2019-02-26T17:52:17.876Z,15.73
2019-02-26T17:54:44.987Z,15.33
2019-02-26T17:57:12.166Z,15.60
2019-02-26T17:59:41.202Z,17.10
2019-02-26T18:02:08.336Z,16.30
2019-02-26T18:04:56.064Z,16.67
2019-02-26T18:07:23.205Z,17.93
2019-02-26T18:09:50.668Z,17.77
2019-02-26T18:12:17.982Z,18.13
2019-02-26T18:14:46.292Z,16.83
2019-02-26T18:17:13.588Z,16.13
2019-02-26T18:19:40.827Z,17.37
2019-02-26T18:22:07.972Z,16.03
2019-02-26T18:24:35.092Z,16.07
2019-02-26T18:27:22.696Z,18.97
2019-02-26T18:29:50.919Z,14.77
2019-02-26T18:32:18.643Z,15.20
2019-02-26T18:34:46.048Z,15.97
2019-02-26T18:37:13.173Z,16.70
2019-02-26T18:39:40.286Z,15.40
2019-02-26T18:42:08.351Z,15.17
2019-02-26T18:44:37.354Z,16.80
2019-02-26T18:47:04.845Z,18.17
2019-02-26T18:49:33.551Z,20.43
2019-02-26T18:52:00.614Z,20.50
2019-02-26T18:54:27.700Z,18.83
2019-02-26T19:00:45.657Z,15.33
2019-02-26T19:03:12.792Z,16.63
2019-02-26T19:05:39.892Z,18.07
2019-02-26T19:08:07.101Z,17.77
2019-02-26T19:10:34.269Z,18.93
2019-02-26T19:13:02.639Z,17.33
2019-02-26T19:15:30.509Z,14.50
2019-02-26T19:18:03.533Z,15.53
2019-02-26T19:20:30.832Z,15.50
2019-02-26T19:22:58.962Z,15.37
2019-02-26T19:25:26.673Z,16.83
2019-02-26T19:27:54.913Z,15.97
2019-02-26T19:30:24.352Z,14.80
2019-02-26T19:32:51.553Z,16.20
2019-02-26T19:35:18.826Z,17.20
2019-02-26T19:37:47.171Z,17.60
2019-02-26T19:40:16.138Z,17.23
2019-02-26T19:42:43.232Z,16.93
2019-02-26T19:45:11.845Z,18.73
2019-02-26T19:47:39.164Z,19.97
2019-02-26T19:50:11.695Z,14.13
2019-02-26T19:52:36.525Z,16.77
2019-02-26T19:55:05.899Z,17.73
2019-02-26T19:57:33.486Z,15.87
2019-02-26T20:00:01.140Z,17.63
2019-02-26T20:02:31.527Z,17.17
2019-02-26T20:04:57.324Z,16.43
2019-02-26T20:07:24.441Z,16.47
2019-02-26T20:09:52.137Z,21.47
2019-02-26T20:12:19.251Z,21.00
2019-02-26T20:15:59.937Z,19.20
2019-02-26T20:18:27.253Z,18.87
2019-02-26T20:20:54.332Z,20.20
2019-02-26T20:23:21.444Z,16.00
2019-02-26T20:25:48.588Z,14.90
2019-02-26T20:28:15.715Z,18.53
2019-02-26T20:30:42.830Z,18.83
2019-02-26T20:36:42.044Z,16.70
2019-02-26T20:39:09.457Z,17.63
2019-02-26T20:41:37.727Z,16.80
2019-02-26T20:44:05.029Z,17.63
2019-02-26T20:46:32.165Z,16.60
2019-02-26T20:48:59.374Z,15.27
2019-02-26T20:51:27.223Z,15.93
2019-02-26T20:53:55.949Z,14.70
2019-02-26T20:56:23.148Z,14.83
2019-02-26T20:58:50.259Z,17.17
2019-02-26T21:01:17.578Z,22.60
2019-02-26T21:03:44.700Z,18.13
2019-02-26T21:06:12.018Z,17.90
2019-02-26T21:08:39.166Z,20.77
2019-02-26T21:11:06.461Z,20.70
2019-02-26T21:13:34.985Z,18.07
2019-02-26T21:19:36.603Z,19.00
2019-02-26T21:22:03.814Z,18.77
2019-02-26T21:25:08.521Z,19.77
2019-02-26T21:27:36.743Z,15.47
2019-02-26T21:30:04.386Z,18.23
2019-02-26T21:32:31.690Z,15.63
2019-02-26T21:35:00.625Z,18.87
2019-02-26T21:37:27.730Z,17.10
2019-02-26T21:39:54.852Z,17.33
2019-02-26T21:42:21.982Z,20.53
2019-02-26T21:44:49.125Z,22.00
2019-02-26T21:47:16.312Z,22.63
2019-02-26T21:49:43.490Z,23.13
2019-02-26T21:52:59.795Z,23.13
2019-02-26T21:55:20.866Z,21.90
2019-02-26T21:58:07.223Z,17.80
2019-02-26T22:00:36.739Z,17.83
2019-02-26T22:03:03.292Z,21.47
2019-02-26T22:06:11.556Z,20.43
2019-02-26T22:08:38.957Z,18.47
2019-02-26T22:11:07.708Z,21.40
2019-02-26T22:13:34.810Z,20.93
2019-02-26T22:16:01.901Z,23.53
2019-02-26T22:18:33.962Z,23.00
2019-02-26T22:20:59.726Z,18.77
2019-02-26T22:23:27.273Z,15.50
2019-02-26T22:25:55.411Z,16.43
2019-02-26T22:28:23.121Z,18.00
2019-02-26T22:30:56.513Z,18.33
2019-02-26T22:33:23.700Z,16.77
2019-02-26T22:35:52.601Z,17.90
2019-02-26T22:38:19.746Z,18.30
2019-02-26T22:40:48.817Z,16.43
2019-02-26T22:43:15.909Z,15.40
2019-02-26T22:45:42.962Z,15.43
2019-02-26T22:48:13.422Z,14.83
2019-02-26T22:50:59.595Z,15.70
2019-02-26T22:53:26.136Z,18.70
2019-02-26T22:55:53.202Z,18.33
2019-02-26T22:58:20.291Z,19.67
2019-02-26T23:01:16.151Z,21.60
2019-02-26T23:04:38.933Z,20.53
2019-02-26T23:07:06.254Z,19.20
2019-02-26T23:09:33.951Z,17.30
2019-02-26T23:12:16.794Z,18.53
2019-02-26T23:14:44.076Z,16.67
2019-02-26T23:17:11.448Z,17.97
2019-02-26T23:19:39.425Z,18.63
2019-02-26T23:22:06.648Z,19.20
2019-02-26T23:24:33.714Z,16.70
2019-02-26T23:27:00.883Z,16.63
2019-02-26T23:29:28.636Z,14.57
2019-02-26T23:31:56.485Z,15.73
2019-02-26T23:34:23.561Z,16.47
2019-02-26T23:36:50.606Z,15.30
2019-02-26T23:39:17.752Z,18.20
2019-02-26T23:41:44.858Z,16.00
2019-02-26T23:44:12.536Z,19.67
2019-02-26T23:46:51.975Z,15.77
2019-02-26T23:49:19.042Z,16.30
2019-02-26T23:51:46.139Z,17.70
2019-02-26T23:54:40.497Z,16.87
2019-02-26T23:57:07.537Z,16.23
2019-02-26T23:59:34.804Z,18.07
